Time;durP1;ratioP1;P1;durP2;ratioP2;P2;SDS_P1;SDS_P2;PMS_P1;PMS_P2;Temp;Humidity;BMP_temperature;BMP_pressure;BME280_temperature;BME280_humidity;BME280_pressure;Samples;Min_cycle;Max_cycle;Signal;HPM_P1;HPM_P2
2021/01/24 00:01:31;;;;;;;6.18;5.57;;;;;;;;;;6397207;22;20183;-52
2021/01/24 00:03:58;;;;;;;7.43;6.15;;;;;;;;;;6397924;22;20178;-56
2021/01/24 00:06:26;;;;;;;8.82;6.53;;;;;;;;;;6397188;22;20170;-53
2021/01/24 00:08:55;;;;;;;7.95;6.60;;;;;;;;;;6396485;22;20192;-53
2021/01/24 00:11:23;;;;;;;12.52;7.15;;;;;;;;;;6396416;22;20189;-49
2021/01/24 00:13:50;;;;;;;10.30;7.40;;;;;;;;;;6396339;22;20234;-51
2021/01/24 00:16:44;;;;;;;8.05;6.60;;;;;;;;;;6396146;22;20157;-50
2021/01/24 00:19:13;;;;;;;9.50;7.13;;;;;;;;;;6397961;22;20177;-52
2021/01/24 00:21:40;;;;;;;9.43;6.50;;;;;;;;;;6397052;22;20173;-56
2021/01/24 00:24:09;;;;;;;10.23;7.60;;;;;;;;;;6396731;22;20185;-57
2021/01/24 00:26:35;;;;;;;9.60;6.45;;;;;;;;;;6396320;22;20192;-58
2021/01/24 00:29:02;;;;;;;12.20;8.85;;;;;;;;;;6396062;22;20185;-49
2021/01/24 00:31:54;;;;;;;8.45;6.43;;;;;;;;;;6396492;22;20161;-52
2021/01/24 00:34:21;;;;;;;16.25;7.20;;;;;;;;;;6395795;22;20250;-51
2021/01/24 00:36:49;;;;;;;11.95;7.63;;;;;;;;;;6396776;22;20184;-50
2021/01/24 00:39:18;;;;;;;9.25;7.80;;;;;;;;;;6396669;22;20198;-49
2021/01/24 00:41:45;;;;;;;10.07;6.63;;;;;;;;;;6396521;22;20250;-49
2021/01/24 00:44:11;;;;;;;12.07;7.82;;;;;;;;;;6396359;22;20258;-51
2021/01/24 00:49:42;;;;;;;10.85;7.05;;;;;;;;;;6396051;22;20218;-50
2021/01/24 00:52:12;;;;;;;9.80;7.30;;;;;;;;;;6397208;22;20181;-52
2021/01/24 00:55:10;;;;;;;9.98;7.75;;;;;;;;;;6396267;22;20189;-53
2021/01/24 00:57:37;;;;;;;9.48;8.00;;;;;;;;;;6396135;22;20201;-50
2021/01/24 01:00:04;;;;;;;11.10;8.13;;;;;;;;;;6396475;22;20206;-55
2021/01/24 01:02:56;;;;;;;13.40;10.77;;;;;;;;;;6396529;22;20173;-49
2021/01/24 01:05:23;;;;;;;12.40;10.18;;;;;;;;;;6396203;22;20185;-53
2021/01/24 01:07:50;;;;;;;10.57;8.10;;;;;;;;;;6396301;22;20174;-49
2021/01/24 01:10:35;;;;;;;10.25;8.43;;;;;;;;;;6396476;22;20169;-52
2021/01/24 01:13:02;;;;;;;10.70;7.60;;;;;;;;;;6396027;22;20192;-51
2021/01/24 01:15:32;;;;;;;9.63;7.50;;;;;;;;;;6396019;22;20189;-53
2021/01/24 01:18:05;;;;;;;9.75;7.53;;;;;;;;;;6396893;22;20206;-47
2021/01/24 01:20:32;;;;;;;12.35;9.90;;;;;;;;;;6396967;22;20201;-51
2021/01/24 01:23:01;;;;;;;11.02;9.45;;;;;;;;;;6397664;22;20151;-57
2021/01/24 01:25:39;;;;;;;10.68;8.18;;;;;;;;;;6397568;22;20191;-49
2021/01/24 01:28:13;;;;;;;10.68;8.32;;;;;;;;;;6397507;22;20487;-49
2021/01/24 01:30:39;;;;;;;13.00;9.20;;;;;;;;;;6396303;22;20178;-55
2021/01/24 01:33:41;;;;;;;21.60;15.63;;;;;;;;;;6396555;22;20161;-48
2021/01/24 01:36:08;;;;;;;11.80;8.88;;;;;;;;;;6396076;22;20192;-51
2021/01/24 01:38:35;;;;;;;14.60;11.60;;;;;;;;;;6396468;22;20565;-55
2021/01/24 01:41:13;;;;;;;16.92;12.05;;;;;;;;;;6396281;22;20209;-59
2021/01/24 01:43:40;;;;;;;27.27;21.63;;;;;;;;;;6396707;22;20198;-48
2021/01/24 01:46:07;;;;;;;22.40;17.85;;;;;;;;;;6396952;22;20177;-50
2021/01/24 01:48:52;;;;;;;9.60;8.23;;;;;;;;;;6396360;22;20204;-50
2021/01/24 01:51:19;;;;;;;14.38;10.43;;;;;;;;;;6395802;22;20168;-55
2021/01/24 01:53:47;;;;;;;9.48;7.22;;;;;;;;;;6396904;22;20189;-50
2021/01/24 01:56:51;;;;;;;16.52;12.15;;;;;;;;;;6396340;22;20166;-53
2021/01/24 01:59:23;;;;;;;65.47;45.28;;;;;;;;;;6396896;22;20201;-53
2021/01/24 02:01:59;;;;;;;19.98;13.98;;;;;;;;;;6396756;22;20203;-50
2021/01/24 02:04:28;;;;;;;21.83;15.63;;;;;;;;;;6396603;22;20178;-50
2021/01/24 02:06:59;;;;;;;13.82;9.68;;;;;;;;;;6396181;22;20174;-45
2021/01/24 02:09:46;;;;;;;4.85;3.70;;;;;;;;;;6397094;22;20173;-50
2021/01/24 02:12:17;;;;;;;8.77;5.78;;;;;;;;;;6396274;22;20186;-51
2021/01/24 02:14:49;;;;;;;28.55;20.10;;;;;;;;;;6396270;22;20178;-51
2021/01/24 02:17:19;;;;;;;25.52;18.00;;;;;;;;;;6396783;22;20180;-48
2021/01/24 02:20:12;;;;;;;19.45;14.68;;;;;;;;;;6396729;22;20213;-54
2021/01/24 02:22:43;;;;;;;13.05;9.55;;;;;;;;;;6396529;22;20187;-54
2021/01/24 02:25:17;;;;;;;6.43;4.20;;;;;;;;;;6397023;22;20162;-52
2021/01/24 02:28:16;;;;;;;13.13;9.60;;;;;;;;;;6396543;22;20173;-50
2021/01/24 02:30:43;;;;;;;11.07;7.72;;;;;;;;;;6396827;22;20173;-52
2021/01/24 02:33:12;;;;;;;8.43;6.53;;;;;;;;;;6397521;22;20165;-46
2021/01/24 02:36:14;;;;;;;5.15;4.15;;;;;;;;;;6397396;22;20377;-50
2021/01/24 02:38:42;;;;;;;30.63;19.67;;;;;;;;;;6396936;22;20232;-51
2021/01/24 02:41:09;;;;;;;8.52;6.07;;;;;;;;;;6395898;22;20192;-52
2021/01/24 02:43:52;;;;;;;10.38;7.50;;;;;;;;;;6398677;22;20208;-50
2021/01/24 02:46:20;;;;;;;5.97;4.75;;;;;;;;;;6398359;22;20165;-47
2021/01/24 02:48:49;;;;;;;4.80;2.95;;;;;;;;;;6398477;22;20161;-51
2021/01/24 02:51:49;;;;;;;3.50;2.13;;;;;;;;;;6398498;22;20169;-51
2021/01/24 02:54:19;;;;;;;2.97;2.00;;;;;;;;;;6398734;22;20176;-54
2021/01/24 02:56:46;;;;;;;2.90;2.03;;;;;;;;;;6398690;22;20180;-50
2021/01/24 02:59:27;;;;;;;3.10;1.95;;;;;;;;;;6398581;22;20165;-55
2021/01/24 03:01:55;;;;;;;3.20;2.55;;;;;;;;;;6398201;22;20189;-48
2021/01/24 03:04:22;;;;;;;3.53;2.38;;;;;;;;;;6398511;22;20181;-56
2021/01/24 03:06:56;;;;;;;4.75;3.15;;;;;;;;;;6399066;22;20162;-49
2021/01/24 03:09:25;;;;;;;4.03;2.60;;;;;;;;;;6398136;22;20198;-51
2021/01/24 03:11:52;;;;;;;2.47;1.83;;;;;;;;;;6399429;22;20162;-53
2021/01/24 03:14:29;;;;;;;3.13;1.90;;;;;;;;;;6398743;22;20183;-50
2021/01/24 03:16:58;;;;;;;11.68;7.15;;;;;;;;;;6398812;22;20183;-48
2021/01/24 03:19:26;;;;;;;4.95;2.60;;;;;;;;;;6399052;22;20210;-53
2021/01/24 03:22:06;;;;;;;2.80;2.30;;;;;;;;;;6398777;22;20207;-54
2021/01/24 03:24:33;;;;;;;3.13;2.42;;;;;;;;;;6399005;22;20172;-56
2021/01/24 03:27:03;;;;;;;4.38;2.72;;;;;;;;;;6398445;22;20153;-46
2021/01/24 03:29:33;;;;;;;3.42;1.83;;;;;;;;;;6398640;22;20184;-59
2021/01/24 03:32:04;;;;;;;3.00;2.05;;;;;;;;;;6398708;22;20479;-58
2021/01/24 03:34:31;;;;;;;2.75;1.42;;;;;;;;;;6399168;22;20164;-54
2021/01/24 03:37:08;;;;;;;1.80;1.02;;;;;;;;;;6399597;22;20171;-42
2021/01/24 03:39:34;;;;;;;2.20;1.30;;;;;;;;;;6399140;22;20187;-53
2021/01/24 03:42:01;;;;;;;4.78;2.95;;;;;;;;;;6399436;22;20269;-56
2021/01/24 03:44:46;;;;;;;2.40;1.55;;;;;;;;;;6398907;22;20164;-47
2021/01/24 03:47:15;;;;;;;14.82;7.97;;;;;;;;;;6399571;22;20164;-50
2021/01/24 03:49:42;;;;;;;2.72;1.55;;;;;;;;;;6399071;22;20197;-45
2021/01/24 03:52:10;;;;;;;2.88;1.60;;;;;;;;;;6398955;22;20163;-54
2021/01/24 03:54:36;;;;;;;3.30;1.95;;;;;;;;;;6398795;22;20212;-51
2021/01/24 03:57:19;;;;;;;2.30;1.55;;;;;;;;;;6399504;22;20165;-50
2021/01/24 03:59:51;;;;;;;4.05;1.42;;;;;;;;;;6398738;22;20243;-45
2021/01/24 04:02:19;;;;;;;4.07;1.75;;;;;;;;;;6398704;22;20195;-48
2021/01/24 04:05:22;;;;;;;3.20;2.13;;;;;;;;;;6398674;22;20457;-46
2021/01/24 04:07:49;;;;;;;5.07;2.80;;;;;;;;;;6399244;22;20279;-49
2021/01/24 04:10:16;;;;;;;7.10;4.60;;;;;;;;;;6398605;22;20165;-50
2021/01/24 04:18:28;;;;;;;7.82;4.97;;;;;;;;;;6301152;22;20206;-47
2021/01/24 04:20:59;;;;;;;2.42;1.80;;;;;;;;;;6304982;22;20190;-51
2021/01/24 04:23:27;;;;;;;3.50;2.83;;;;;;;;;;6304784;22;20167;-47
2021/01/24 04:25:54;;;;;;;4.50;2.33;;;;;;;;;;6304541;22;20163;-53
2021/01/24 04:31:25;;;;;;;4.10;2.60;;;;;;;;;;6363638;22;20248;-46
2021/01/24 04:33:54;;;;;;;5.70;2.67;;;;;;;;;;6367581;22;20171;-48
2021/01/24 04:36:32;;;;;;;3.78;2.78;;;;;;;;;;6367990;22;20160;-48
2021/01/24 04:39:00;;;;;;;5.25;3.17;;;;;;;;;;6366978;22;20230;-50
2021/01/24 04:41:27;;;;;;;4.78;2.78;;;;;;;;;;6367604;22;20207;-44
2021/01/24 04:43:56;;;;;;;4.20;2.92;;;;;;;;;;6367591;22;20189;-43
2021/01/24 04:46:27;;;;;;;3.72;2.45;;;;;;;;;;6367444;22;20161;-52
2021/01/24 04:48:56;;;;;;;4.30;2.75;;;;;;;;;;6367064;22;20168;-47
2021/01/24 04:54:27;;;;;;;3.88;2.92;;;;;;;;;;6366929;22;20223;-54
2021/01/24 04:56:53;;;;;;;3.80;2.88;;;;;;;;;;6367035;22;20160;-56
2021/01/24 04:59:21;;;;;;;4.90;3.10;;;;;;;;;;6366821;22;20218;-49
2021/01/24 05:01:49;;;;;;;4.38;3.10;;;;;;;;;;6367126;22;20163;-56
2021/01/24 05:04:17;;;;;;;6.03;2.92;;;;;;;;;;6366712;22;20333;-51
2021/01/24 05:06:44;;;;;;;5.57;3.05;;;;;;;;;;6366928;22;20171;-54
2021/01/24 05:09:11;;;;;;;7.15;4.60;;;;;;;;;;6366869;22;20149;-55
2021/01/24 05:14:42;;;;;;;7.95;3.30;;;;;;;;;;6367147;22;20212;-51
2021/01/24 05:17:08;;;;;;;6.15;3.38;;;;;;;;;;6366785;22;20175;-56
2021/01/24 05:19:37;;;;;;;4.68;3.38;;;;;;;;;;6367007;22;20203;-49
2021/01/24 05:22:04;;;;;;;6.50;3.80;;;;;;;;;;6366508;22;20176;-49
2021/01/24 05:24:31;;;;;;;6.35;4.32;;;;;;;;;;6366848;22;20180;-48
2021/01/24 05:27:17;;;;;;;7.45;4.97;;;;;;;;;;6366746;22;20161;-48
2021/01/24 05:29:44;;;;;;;6.80;4.50;;;;;;;;;;6366777;22;20192;-51
2021/01/24 05:32:11;;;;;;;8.23;5.43;;;;;;;;;;6366481;22;20571;-44
2021/01/24 05:37:46;;;;;;;7.78;4.53;;;;;;;;;;6366712;22;20162;-48
2021/01/24 05:40:13;;;;;;;7.25;5.32;;;;;;;;;;6366070;22;20207;-47
2021/01/24 05:43:04;;;;;;;8.45;5.50;;;;;;;;;;6366566;22;20176;-49
2021/01/24 05:45:38;;;;;;;9.77;6.30;;;;;;;;;;6365932;22;20176;-45
2021/01/24 05:48:05;;;;;;;9.60;5.78;;;;;;;;;;6366590;22;20168;-48
2021/01/24 05:50:44;;;;;;;11.05;6.88;;;;;;;;;;6365931;22;20176;-48
2021/01/24 05:53:13;;;;;;;9.43;6.65;;;;;;;;;;6365976;22;20167;-48
2021/01/24 05:55:40;;;;;;;11.35;6.90;;;;;;;;;;6365933;22;20214;-51
2021/01/24 05:58:15;;;;;;;12.57;7.78;;;;;;;;;;6366451;22;20164;-48
2021/01/24 06:00:43;;;;;;;11.05;7.07;;;;;;;;;;6365867;22;20193;-54
2021/01/24 06:03:37;;;;;;;14.25;8.95;;;;;;;;;;6366402;22;20149;-49
2021/01/24 06:06:05;;;;;;;12.73;8.23;;;;;;;;;;6366383;22;20164;-48
2021/01/24 06:08:32;;;;;;;11.00;7.10;;;;;;;;;;6365739;22;20168;-51
2021/01/24 06:14:08;;;;;;;11.93;6.82;;;;;;;;;;6366332;22;20148;-52
2021/01/24 06:16:37;;;;;;;10.70;7.63;;;;;;;;;;6366753;22;20164;-53
2021/01/24 06:19:05;;;;;;;11.02;7.10;;;;;;;;;;6368140;22;20164;-55
2021/01/24 06:21:52;;;;;;;10.85;6.95;;;;;;;;;;6368015;22;20195;-55
2021/01/24 06:24:20;;;;;;;11.23;7.38;;;;;;;;;;6367564;22;20172;-52
2021/01/24 06:26:48;;;;;;;10.05;6.55;;;;;;;;;;6368004;22;20180;-55
2021/01/24 06:29:46;;;;;;;12.45;7.63;;;;;;;;;;6367202;22;20156;-51
2021/01/24 06:32:24;;;;;;;13.32;7.38;;;;;;;;;;6367526;22;20172;-57
2021/01/24 06:34:50;;;;;;;13.55;7.70;;;;;;;;;;6367729;22;20149;-53
2021/01/24 06:37:19;;;;;;;15.80;9.10;;;;;;;;;;6367791;22;20172;-56
2021/01/24 06:39:50;;;;;;;16.77;9.13;;;;;;;;;;6367349;22;20185;-52
2021/01/24 06:42:36;;;;;;;16.60;9.18;;;;;;;;;;6367820;22;20210;-51
2021/01/24 06:45:03;;;;;;;17.05;9.57;;;;;;;;;;6367054;22;20188;-58
2021/01/24 06:47:39;;;;;;;20.38;10.80;;;;;;;;;;6367963;22;20168;-53
2021/01/24 06:50:06;;;;;;;18.75;10.68;;;;;;;;;;6368052;22;20256;-52
2021/01/24 06:52:33;;;;;;;23.83;11.63;;;;;;;;;;6367652;22;20161;-49
2021/01/24 06:55:21;;;;;;;23.15;11.45;;;;;;;;;;6367944;22;20191;-54
2021/01/24 06:57:48;;;;;;;22.40;11.48;;;;;;;;;;6367685;22;20180;-47
2021/01/24 07:00:18;;;;;;;28.75;12.55;;;;;;;;;;6367600;22;20199;-56
2021/01/24 07:02:46;;;;;;;25.58;11.50;;;;;;;;;;6367816;22;20160;-51
2021/01/24 07:05:13;;;;;;;22.92;13.07;;;;;;;;;;6367959;22;20188;-49
2021/01/24 07:07:41;;;;;;;20.25;10.40;;;;;;;;;;6367584;22;20187;-53
2021/01/24 07:10:09;;;;;;;19.70;10.15;;;;;;;;;;6367742;22;20149;-45
2021/01/24 07:12:43;;;;;;;18.80;11.85;;;;;;;;;;6367349;22;20153;-48
2021/01/24 07:15:11;;;;;;;21.95;11.52;;;;;;;;;;6367876;22;20164;-47
2021/01/24 07:17:38;;;;;;;23.83;12.32;;;;;;;;;;6367597;22;20177;-50
2021/01/24 07:20:13;;;;;;;23.00;12.35;;;;;;;;;;6367664;22;20196;-46
2021/01/24 07:22:39;;;;;;;26.00;11.60;;;;;;;;;;6358415;22;20203;-47
2021/01/24 07:25:07;;;;;;;27.10;12.65;;;;;;;;;;6367644;22;20165;-47
2021/01/24 07:27:35;;;;;;;20.90;12.18;;;;;;;;;;6367339;22;20232;-45
2021/01/24 07:30:02;;;;;;;28.08;13.07;;;;;;;;;;6367132;22;20201;-50
2021/01/24 07:32:40;;;;;;;27.33;13.00;;;;;;;;;;6367610;22;20160;-44
2021/01/24 07:35:12;;;;;;;25.02;13.45;;;;;;;;;;6367579;22;20145;-45
2021/01/24 07:37:41;;;;;;;28.33;12.68;;;;;;;;;;6367819;22;20145;-48
2021/01/24 07:40:08;;;;;;;27.00;13.05;;;;;;;;;;6367419;22;20205;-44
2021/01/24 07:42:46;;;;;;;27.17;10.70;;;;;;;;;;6367555;22;20184;-47
2021/01/24 07:45:14;;;;;;;33.85;12.98;;;;;;;;;;6367248;22;20161;-45
2021/01/24 07:47:40;;;;;;;29.02;11.98;;;;;;;;;;6367314;22;20181;-46
2021/01/24 07:50:18;;;;;;;28.73;13.30;;;;;;;;;;6367671;22;20152;-48
2021/01/24 07:52:51;;;;;;;31.17;14.07;;;;;;;;;;6367619;22;20181;-51
2021/01/24 07:55:18;;;;;;;35.63;16.38;;;;;;;;;;6367321;22;20181;-50
2021/01/24 07:57:51;;;;;;;32.65;14.20;;;;;;;;;;6367474;22;20182;-45
2021/01/24 08:00:21;;;;;;;32.40;13.63;;;;;;;;;;6367024;22;20275;-55
2021/01/24 08:02:50;;;;;;;26.20;13.90;;;;;;;;;;6367276;22;20182;-52
2021/01/24 08:08:21;;;;;;;33.65;15.85;;;;;;;;;;6371237;22;20207;-51
2021/01/24 08:10:48;;;;;;;40.65;16.42;;;;;;;;;;6367322;22;20186;-46
2021/01/24 08:13:15;;;;;;;37.83;16.42;;;;;;;;;;6367321;22;20184;-51
2021/01/24 08:15:41;;;;;;;39.78;17.83;;;;;;;;;;6367320;22;20177;-46
2021/01/24 08:18:18;;;;;;;37.72;17.10;;;;;;;;;;6367236;22;20223;-43
2021/01/24 08:20:45;;;;;;;39.30;16.25;;;;;;;;;;6367241;22;20251;-45
2021/01/24 08:23:12;;;;;;;45.80;17.77;;;;;;;;;;6367309;22;20177;-50
2021/01/24 08:28:45;;;;;;;45.22;18.05;;;;;;;;;;6367181;22;20147;-51
2021/01/24 08:31:17;;;;;;;38.65;17.95;;;;;;;;;;6367148;22;20190;-46
2021/01/24 08:36:48;;;;;;;46.22;22.98;;;;;;;;;;6388540;22;20226;-49
2021/01/24 08:39:15;;;;;;;42.17;21.00;;;;;;;;;;6397833;22;20230;-45
2021/01/24 08:41:58;;;;;;;44.70;22.02;;;;;;;;;;6398038;22;20209;-52
2021/01/24 08:44:26;;;;;;;49.60;23.42;;;;;;;;;;6397823;22;20187;-51
2021/01/24 08:46:54;;;;;;;46.95;22.15;;;;;;;;;;6397990;22;20144;-50
2021/01/24 08:49:25;;;;;;;49.20;22.27;;;;;;;;;;6397973;22;20173;-45
2021/01/24 08:51:52;;;;;;;61.08;24.52;;;;;;;;;;6370935;22;20201;-46
2021/01/24 08:54:20;;;;;;;54.03;24.35;;;;;;;;;;6397694;22;20177;-45
2021/01/24 08:57:07;;;;;;;58.20;25.30;;;;;;;;;;6397575;22;20179;-45
2021/01/24 08:59:35;;;;;;;54.22;23.20;;;;;;;;;;6397186;22;20191;-50
2021/01/24 09:02:02;;;;;;;51.08;22.55;;;;;;;;;;6397530;22;20178;-50
2021/01/24 09:04:36;;;;;;;40.40;22.05;;;;;;;;;;6397403;22;20175;-46
2021/01/24 09:07:10;;;;;;;46.78;23.77;;;;;;;;;;6397536;22;20163;-52
2021/01/24 09:09:44;;;;;;;46.42;20.70;;;;;;;;;;6397088;22;20240;-57
2021/01/24 09:12:19;;;;;;;43.67;19.60;;;;;;;;;;6370167;22;20169;-53
2021/01/24 09:14:49;;;;;;;37.00;20.92;;;;;;;;;;6396382;22;20174;-52
2021/01/24 09:17:16;;;;;;;33.60;17.55;;;;;;;;;;6396998;22;20165;-50
2021/01/24 09:19:44;;;;;;;34.45;19.38;;;;;;;;;;6397268;22;20192;-47
2021/01/24 09:22:32;;;;;;;32.70;18.55;;;;;;;;;;6396723;22;20234;-49
2021/01/24 09:24:59;;;;;;;31.27;17.90;;;;;;;;;;6396115;22;20161;-50
2021/01/24 09:27:25;;;;;;;39.78;18.55;;;;;;;;;;6396641;22;20189;-51
2021/01/24 09:30:12;;;;;;;30.95;17.73;;;;;;;;;;6396313;22;20354;-45
2021/01/24 09:32:39;;;;;;;28.13;16.52;;;;;;;;;;6396616;22;20197;-46
2021/01/24 09:35:07;;;;;;;30.10;16.35;;;;;;;;;;6396494;22;20176;-49
2021/01/24 09:37:50;;;;;;;33.17;17.70;;;;;;;;;;6397148;22;20171;-49
2021/01/24 09:40:18;;;;;;;29.35;15.15;;;;;;;;;;6368078;22;20197;-44
2021/01/24 09:42:44;;;;;;;23.48;14.35;;;;;;;;;;6396825;22;20149;-54
2021/01/24 09:45:29;;;;;;;21.05;13.75;;;;;;;;;;6396937;22;20165;-49
2021/01/24 09:47:56;;;;;;;26.27;13.32;;;;;;;;;;6397788;22;20175;-45
2021/01/24 09:50:24;;;;;;;27.60;13.38;;;;;;;;;;6397440;22;20198;-52
2021/01/24 09:52:51;;;;;;;24.27;13.93;;;;;;;;;;6398777;22;20181;-48
2021/01/24 09:55:18;;;;;;;26.10;13.73;;;;;;;;;;6399551;22;20160;-49
2021/01/24 09:57:55;;;;;;;22.48;12.15;;;;;;;;;;6399777;22;20149;-48
2021/01/24 10:00:22;;;;;;;24.00;12.80;;;;;;;;;;6399134;22;20192;-52
2021/01/24 10:02:50;;;;;;;22.83;12.68;;;;;;;;;;6399002;22;20175;-53
2021/01/24 10:05:52;;;;;;;18.98;12.07;;;;;;;;;;6398920;22;20165;-45
2021/01/24 10:08:19;;;;;;;22.13;13.55;;;;;;;;;;6398602;22;20187;-52
2021/01/24 10:10:46;;;;;;;18.90;11.48;;;;;;;;;;6398753;22;20162;-53
2021/01/24 10:13:13;;;;;;;16.10;10.90;;;;;;;;;;6398635;22;20164;-52
2021/01/24 10:15:40;;;;;;;17.08;10.77;;;;;;;;;;6398290;22;20553;-56
2021/01/24 10:18:09;;;;;;;19.83;11.85;;;;;;;;;;6398639;22;20291;-52
2021/01/24 10:20:37;;;;;;;23.13;13.00;;;;;;;;;;6398615;22;20172;-49
2021/01/24 10:26:14;;;;;;;23.83;12.85;;;;;;;;;;6395876;22;20169;-49
2021/01/24 10:28:45;;;;;;;22.30;13.65;;;;;;;;;;6399676;22;20168;-50
2021/01/24 10:31:13;;;;;;;19.75;13.27;;;;;;;;;;6398934;22;20172;-52
2021/01/24 10:33:48;;;;;;;24.73;15.25;;;;;;;;;;6398402;22;20172;-50
2021/01/24 10:36:15;;;;;;;20.65;13.85;;;;;;;;;;6398457;22;20165;-53
2021/01/24 10:38:43;;;;;;;22.50;15.23;;;;;;;;;;6398684;22;20169;-52
2021/01/24 10:41:11;;;;;;;20.05;13.82;;;;;;;;;;6398187;22;20264;-48
2021/01/24 10:43:39;;;;;;;22.67;14.43;;;;;;;;;;6371016;22;20275;-48
2021/01/24 10:46:10;;;;;;;22.13;15.23;;;;;;;;;;6397923;22;20173;-55
2021/01/24 10:49:02;;;;;;;28.52;16.25;;;;;;;;;;6397918;22;20176;-55
2021/01/24 10:51:32;;;;;;;22.52;14.63;;;;;;;;;;6397858;22;20240;-50
2021/01/24 10:54:03;;;;;;;21.73;15.68;;;;;;;;;;6398366;22;20153;-54
2021/01/24 10:56:34;;;;;;;27.33;17.00;;;;;;;;;;6398230;22;20185;-51
2021/01/24 10:59:01;;;;;;;28.33;17.23;;;;;;;;;;6397964;22;20177;-51
2021/01/24 11:01:35;;;;;;;24.63;16.13;;;;;;;;;;6397477;22;20197;-54
2021/01/24 11:04:07;;;;;;;26.98;16.27;;;;;;;;;;6397792;22;20169;-46
2021/01/24 11:06:35;;;;;;;26.40;16.00;;;;;;;;;;6397620;22;20189;-47
2021/01/24 11:09:02;;;;;;;21.30;15.35;;;;;;;;;;6397513;22;20150;-53
2021/01/24 11:11:33;;;;;;;27.45;15.98;;;;;;;;;;6397718;22;20168;-53
2021/01/24 11:14:01;;;;;;;23.77;15.82;;;;;;;;;;6398399;22;20177;-56
2021/01/24 11:16:28;;;;;;;20.77;15.13;;;;;;;;;;6398682;22;20251;-46
2021/01/24 11:19:01;;;;;;;24.45;15.57;;;;;;;;;;6398173;22;20166;-57
2021/01/24 11:21:28;;;;;;;22.73;16.58;;;;;;;;;;6397754;22;20214;-52
2021/01/24 11:23:56;;;;;;;25.13;14.75;;;;;;;;;;6397630;22;20180;-54
2021/01/24 11:26:30;;;;;;;23.95;15.15;;;;;;;;;;6397136;22;20161;-47
2021/01/24 11:28:57;;;;;;;23.77;15.27;;;;;;;;;;6397721;22;20177;-56
2021/01/24 11:31:24;;;;;;;20.70;14.07;;;;;;;;;;6396919;22;20199;-48
2021/01/24 11:33:57;;;;;;;23.42;16.60;;;;;;;;;;6397460;22;20177;-50
2021/01/24 11:36:24;;;;;;;21.77;15.05;;;;;;;;;;6397725;22;20172;-50
2021/01/24 11:38:51;;;;;;;19.90;15.05;;;;;;;;;;6397458;22;20160;-49
2021/01/24 11:44:36;;;;;;;23.73;15.10;;;;;;;;;;6396885;22;20169;-52
2021/01/24 11:47:05;;;;;;;25.05;15.70;;;;;;;;;;6398662;22;20196;-53
2021/01/24 11:49:46;;;;;;;25.30;15.77;;;;;;;;;;6397758;22;20173;-48
2021/01/24 11:52:13;;;;;;;24.30;15.32;;;;;;;;;;6397250;22;20201;-47
2021/01/24 11:54:41;;;;;;;25.85;14.20;;;;;;;;;;6397382;22;20201;-53
2021/01/24 11:57:09;;;;;;;22.35;15.15;;;;;;;;;;6370668;22;20291;-45
2021/01/24 11:59:36;;;;;;;17.02;13.10;;;;;;;;;;6396958;22;20221;-54
2021/01/24 12:02:25;;;;;;;28.73;15.20;;;;;;;;;;6397195;22;20207;-49
2021/01/24 12:04:52;;;;;;;22.27;13.98;;;;;;;;;;6396950;22;20171;-55
2021/01/24 12:07:20;;;;;;;17.92;13.48;;;;;;;;;;6397363;22;20161;-50
2021/01/24 12:10:20;;;;;;;21.05;15.45;;;;;;;;;;6397185;22;20190;-50
2021/01/24 12:12:49;;;;;;;21.33;13.80;;;;;;;;;;6396726;22;20336;-54
2021/01/24 12:15:19;;;;;;;20.70;15.05;;;;;;;;;;6396837;22;20182;-51
2021/01/24 12:17:46;;;;;;;20.13;14.57;;;;;;;;;;6396498;22;20201;-50
2021/01/24 12:20:14;;;;;;;20.92;14.25;;;;;;;;;;6396366;22;20193;-50
2021/01/24 12:22:46;;;;;;;20.25;13.90;;;;;;;;;;6397814;22;20236;-53
2021/01/24 12:25:13;;;;;;;21.48;14.40;;;;;;;;;;6396944;22;20368;-50
2021/01/24 12:27:39;;;;;;;21.80;13.57;;;;;;;;;;6396823;22;20178;-58
2021/01/24 12:30:07;;;;;;;21.13;13.15;;;;;;;;;;6396849;22;20187;-53
2021/01/24 12:32:34;;;;;;;18.92;13.60;;;;;;;;;;6396518;22;20184;-54
2021/01/24 12:35:07;;;;;;;16.92;12.60;;;;;;;;;;6395911;22;20159;-56
2021/01/24 12:37:34;;;;;;;22.27;15.05;;;;;;;;;;6396181;22;20177;-48
2021/01/24 12:40:00;;;;;;;21.02;12.32;;;;;;;;;;6395772;22;20177;-46
2021/01/24 12:42:28;;;;;;;19.55;12.85;;;;;;;;;;6395055;22;20208;-50
2021/01/24 12:44:55;;;;;;;21.67;12.60;;;;;;;;;;6395195;22;20178;-49
2021/01/24 12:47:22;;;;;;;17.02;13.45;;;;;;;;;;6395616;22;20165;-52
2021/01/24 12:50:01;;;;;;;18.75;11.90;;;;;;;;;;6395038;22;20173;-48
2021/01/24 12:52:28;;;;;;;18.20;12.40;;;;;;;;;;6395320;22;20206;-54
2021/01/24 12:54:55;;;;;;;19.75;12.75;;;;;;;;;;6395967;22;20204;-50
2021/01/24 12:57:21;;;;;;;17.92;12.20;;;;;;;;;;6395056;22;20182;-54
2021/01/24 12:59:48;;;;;;;14.70;11.23;;;;;;;;;;6394793;22;20183;-53
2021/01/24 13:02:16;;;;;;;17.83;10.93;;;;;;;;;;6395488;22;20205;-55
2021/01/24 13:04:51;;;;;;;18.13;10.20;;;;;;;;;;6394638;22;20138;-53
2021/01/24 13:07:18;;;;;;;20.00;10.43;;;;;;;;;;6394564;22;20180;-56
2021/01/24 13:09:46;;;;;;;15.40;10.10;;;;;;;;;;6394372;22;20220;-57
2021/01/24 13:12:26;;;;;;;15.60;10.00;;;;;;;;;;6394420;22;20213;-58
2021/01/24 13:14:55;;;;;;;16.85;8.52;;;;;;;;;;6394130;22;20291;-57
2021/01/24 13:17:23;;;;;;;12.13;8.77;;;;;;;;;;6394425;22;20185;-51
2021/01/24 13:19:59;;;;;;;12.65;8.77;;;;;;;;;;6394651;22;20191;-50
2021/01/24 13:22:27;;;;;;;16.25;8.95;;;;;;;;;;6394293;22;20213;-47
2021/01/24 13:24:54;;;;;;;14.07;8.68;;;;;;;;;;6395051;22;20178;-54
2021/01/24 13:27:38;;;;;;;18.15;8.30;;;;;;;;;;6393427;22;20181;-48
2021/01/24 13:30:05;;;;;;;16.23;8.10;;;;;;;;;;6393651;22;20177;-51
2021/01/24 13:32:32;;;;;;;9.85;7.13;;;;;;;;;;6394105;22;20163;-53
2021/01/24 13:35:09;;;;;;;19.15;8.23;;;;;;;;;;6395094;22;20189;-49
2021/01/24 13:37:36;;;;;;;17.42;8.40;;;;;;;;;;6393684;22;20181;-55
2021/01/24 13:40:04;;;;;;;17.23;9.60;;;;;;;;;;6394277;22;20182;-52
2021/01/24 13:42:34;;;;;;;13.98;8.50;;;;;;;;;;6394390;22;20169;-57
2021/01/24 13:45:02;;;;;;;11.82;7.60;;;;;;;;;;6395150;22;20224;-51
2021/01/24 13:47:28;;;;;;;18.52;9.25;;;;;;;;;;6394648;22;20169;-54
2021/01/24 13:49:57;;;;;;;15.77;9.82;;;;;;;;;;6393895;22;20205;-54
2021/01/24 13:52:25;;;;;;;13.50;8.65;;;;;;;;;;6395355;22;20171;-54
2021/01/24 13:54:55;;;;;;;17.02;9.15;;;;;;;;;;6394338;22;20170;-52
2021/01/24 13:57:24;;;;;;;13.55;8.90;;;;;;;;;;6393606;22;20187;-46
2021/01/24 13:59:51;;;;;;;16.20;8.98;;;;;;;;;;6394499;22;20181;-54
2021/01/24 14:02:17;;;;;;;15.07;8.90;;;;;;;;;;6393770;22;20205;-52
2021/01/24 14:04:47;;;;;;;14.52;8.77;;;;;;;;;;6394213;22;20174;-51
2021/01/24 14:07:14;;;;;;;13.68;7.55;;;;;;;;;;6366068;22;20180;-52
2021/01/24 14:09:40;;;;;;;14.40;8.10;;;;;;;;;;6394431;22;20174;-48
2021/01/24 14:12:22;;;;;;;15.20;9.45;;;;;;;;;;6394818;22;20166;-58
2021/01/24 14:14:48;;;;;;;15.25;9.82;;;;;;;;;;6394520;22;20190;-54
2021/01/24 14:17:15;;;;;;;14.18;8.30;;;;;;;;;;6394533;22;20199;-51
2021/01/24 14:19:43;;;;;;;21.52;9.18;;;;;;;;;;6395050;22;20387;-52
2021/01/24 14:22:10;;;;;;;14.70;8.13;;;;;;;;;;6394039;22;20197;-49
2021/01/24 14:24:37;;;;;;;15.55;9.60;;;;;;;;;;6392944;22;20185;-53
2021/01/24 14:27:09;;;;;;;20.90;8.85;;;;;;;;;;6393408;22;20166;-46
2021/01/24 14:29:37;;;;;;;15.32;8.32;;;;;;;;;;6393909;22;20187;-53
2021/01/24 14:32:04;;;;;;;16.60;8.30;;;;;;;;;;6393315;22;20221;-55
2021/01/24 14:34:50;;;;;;;16.15;8.70;;;;;;;;;;6392823;22;20181;-50
2021/01/24 14:37:27;;;;;;;17.25;10.00;;;;;;;;;;6394416;22;20180;-51
2021/01/24 14:39:58;;;;;;;14.95;9.05;;;;;;;;;;6386970;22;20241;-51
2021/01/24 14:42:25;;;;;;;17.40;8.35;;;;;;;;;;6395057;22;20191;-48
2021/01/24 14:50:42;;;;;;;13.95;7.95;;;;;;;;;;6393492;22;20238;-51
2021/01/24 14:53:16;;;;;;;15.50;9.30;;;;;;;;;;6396288;22;20165;-51
2021/01/24 14:55:48;;;;;;;13.38;8.43;;;;;;;;;;6396847;22;20180;-54
2021/01/24 14:58:17;;;;;;;10.80;7.80;;;;;;;;;;6395059;22;20154;-53
2021/01/24 15:00:47;;;;;;;12.88;10.00;;;;;;;;;;6395503;22;20201;-55
2021/01/24 15:03:18;;;;;;;14.15;8.90;;;;;;;;;;6396495;22;20214;-51
2021/01/24 15:05:48;;;;;;;19.50;10.30;;;;;;;;;;6395760;22;20188;-55
2021/01/24 15:08:18;;;;;;;12.75;8.85;;;;;;;;;;6396155;22;20177;-52
2021/01/24 15:10:46;;;;;;;12.60;7.93;;;;;;;;;;6395953;22;20201;-55
2021/01/24 15:13:13;;;;;;;11.43;7.20;;;;;;;;;;6396200;22;20182;-52
2021/01/24 15:15:41;;;;;;;12.98;7.72;;;;;;;;;;6396193;22;20165;-57
2021/01/24 15:18:11;;;;;;;15.35;7.68;;;;;;;;;;6394788;22;20200;-55
2021/01/24 15:20:46;;;;;;;9.48;6.80;;;;;;;;;;6396427;22;20260;-49
2021/01/24 15:23:30;;;;;;;14.55;8.20;;;;;;;;;;6395995;22;20165;-53
2021/01/24 15:25:59;;;;;;;12.93;7.97;;;;;;;;;;6394691;22;20169;-56
2021/01/24 15:31:18;;;;;;;17.58;7.22;;;;;;;;;;6395166;22;20254;-47
2021/01/24 15:33:55;;;;;;;8.70;6.28;;;;;;;;;;6396266;22;20172;-51
2021/01/24 15:39:27;;;;;;;15.55;8.73;;;;;;;;;;6396074;22;20156;-52
2021/01/24 15:41:55;;;;;;;11.60;8.43;;;;;;;;;;6395751;22;20269;-49